createdAt,value
2023-02-11T00:00:42.324Z,63.60
2023-02-11T00:03:09.285Z,63.66
2023-02-11T00:05:35.957Z,63.70
2023-02-11T00:08:02.619Z,63.77
2023-02-11T00:10:29.216Z,63.82
2023-02-11T00:12:56.196Z,63.93
2023-02-11T00:15:22.922Z,64.01
2023-02-11T00:17:49.562Z,64.10
2023-02-11T00:20:16.362Z,64.29
2023-02-11T00:22:43.858Z,64.46
2023-02-11T00:25:10.488Z,64.55
2023-02-11T00:27:37.830Z,64.61
2023-02-11T00:30:06.805Z,64.68
2023-02-11T00:32:33.467Z,64.79
2023-02-11T00:35:00.121Z,64.86
2023-02-11T00:37:26.935Z,64.90
2023-02-11T00:39:53.783Z,64.99
2023-02-11T00:42:20.560Z,65.10
2023-02-11T00:44:47.274Z,65.14
2023-02-11T00:47:17.143Z,65.11
2023-02-11T00:49:43.922Z,65.16
2023-02-11T00:52:10.674Z,65.23
2023-02-11T00:54:37.298Z,65.22
2023-02-11T00:57:04.084Z,65.20
2023-02-11T00:59:30.689Z,65.27
2023-02-11T01:01:57.671Z,65.32
2023-02-11T01:04:24.292Z,65.30
2023-02-11T01:06:52.051Z,65.33
2023-02-11T01:09:19.702Z,65.36
2023-02-11T01:11:46.280Z,65.43
2023-02-11T01:14:13.432Z,65.50
2023-02-11T01:16:40.457Z,65.50
2023-02-11T01:19:07.094Z,65.54
2023-02-11T01:21:33.835Z,65.60
2023-02-11T01:24:00.587Z,65.68
2023-02-11T01:26:27.332Z,65.70
2023-02-11T01:28:54.038Z,65.67
2023-02-11T01:31:20.864Z,65.60
2023-02-11T01:33:47.532Z,65.60
2023-02-11T01:36:14.065Z,65.57
2023-02-11T01:38:41.073Z,65.50
2023-02-11T01:41:12.667Z,65.49
2023-02-11T01:43:44.859Z,65.45
2023-02-11T01:46:23.805Z,65.51
2023-02-11T01:49:12.073Z,65.50
2023-02-11T01:51:57.172Z,65.50
2023-02-11T01:54:48.724Z,65.58
2023-02-11T01:57:25.349Z,65.60
2023-02-11T02:00:34.470Z,65.64
2023-02-11T02:03:08.626Z,65.69
2023-02-11T02:06:08.240Z,65.70
2023-02-11T02:08:51.679Z,65.71
2023-02-11T02:11:18.397Z,65.71
2023-02-11T02:13:45.150Z,65.77
2023-02-11T02:16:15.927Z,65.75
2023-02-11T02:19:05.660Z,65.70
2023-02-11T02:22:11.029Z,65.72
2023-02-11T02:25:33.746Z,65.82
2023-02-11T02:28:22.323Z,65.89
2023-02-11T02:31:14.564Z,65.94
2023-02-11T02:33:53.870Z,66.00
2023-02-11T02:36:50.220Z,66.08
2023-02-11T02:39:32.213Z,66.13
2023-02-11T02:41:59.734Z,66.21
2023-02-11T02:44:26.485Z,66.28
2023-02-11T02:46:53.164Z,66.32
2023-02-11T02:49:19.725Z,66.42
2023-02-11T02:52:16.341Z,66.47
2023-02-11T02:55:27.464Z,66.50
2023-02-11T02:58:24.385Z,66.50
2023-02-11T03:01:33.166Z,66.48
2023-02-11T03:04:13.752Z,66.47
2023-02-11T03:07:01.801Z,66.50
2023-02-11T03:09:38.617Z,66.50
2023-02-11T03:12:07.840Z,66.47
2023-02-11T03:14:36.863Z,66.46
2023-02-11T03:17:06.199Z,66.44
2023-02-11T03:19:48.482Z,66.40
2023-02-11T03:22:30.357Z,66.40
2023-02-11T03:24:57.037Z,66.33
2023-02-11T03:27:51.713Z,66.30
2023-02-11T03:30:30.480Z,66.22
2023-02-11T03:33:13.834Z,66.18
2023-02-11T03:36:01.269Z,66.10
2023-02-11T03:38:45.164Z,65.98
2023-02-11T03:41:16.162Z,65.90
2023-02-11T03:43:52.044Z,65.79
2023-02-11T03:46:24.854Z,65.66
2023-02-11T03:49:02.684Z,65.46
2023-02-11T03:51:32.584Z,65.27
2023-02-11T03:54:04.223Z,65.16
2023-02-11T03:56:50.004Z,65.12
2023-02-11T03:59:16.954Z,64.99
2023-02-11T04:01:43.553Z,64.89
2023-02-11T04:04:10.530Z,64.78
2023-02-11T04:06:37.448Z,64.55
2023-02-11T04:09:04.845Z,64.30
2023-02-11T04:11:31.501Z,64.11
2023-02-11T04:13:58.410Z,63.94
2023-02-11T04:16:26.899Z,63.87
2023-02-11T04:18:53.596Z,63.80
2023-02-11T04:21:20.255Z,63.77
2023-02-11T04:23:46.909Z,63.77
2023-02-11T04:26:13.799Z,63.80
2023-02-11T04:28:40.607Z,63.75
2023-02-11T04:31:07.187Z,63.76
2023-02-11T04:33:33.827Z,63.80
2023-02-11T04:36:00.381Z,63.80
2023-02-11T04:38:26.980Z,63.80
2023-02-11T04:40:53.550Z,63.80
2023-02-11T04:43:20.146Z,63.70
2023-02-11T04:45:46.771Z,63.68
2023-02-11T04:48:13.473Z,63.66
2023-02-11T04:50:40.112Z,63.67
2023-02-11T04:53:06.673Z,63.70
2023-02-11T04:55:33.291Z,63.66
2023-02-11T04:57:59.934Z,63.63
2023-02-11T05:00:26.612Z,63.60
2023-02-11T05:02:53.238Z,63.60
2023-02-11T05:05:19.899Z,63.64
2023-02-11T05:07:46.758Z,63.64
2023-02-11T05:10:13.353Z,63.64
2023-02-11T05:12:39.901Z,63.70
2023-02-11T05:15:06.926Z,63.73
2023-02-11T05:17:33.578Z,63.86
2023-02-11T05:20:00.183Z,63.90
2023-02-11T05:22:26.894Z,63.90
2023-02-11T05:24:53.655Z,63.92
2023-02-11T05:27:20.282Z,63.96
2023-02-11T05:29:46.977Z,64.09
2023-02-11T05:32:13.604Z,64.18
2023-02-11T05:34:40.293Z,64.17
2023-02-11T05:37:06.939Z,64.17
2023-02-11T05:39:33.647Z,64.20
2023-02-11T05:42:00.253Z,64.21
2023-02-11T05:44:26.920Z,64.20
2023-02-11T05:46:53.494Z,64.20
2023-02-11T05:49:20.150Z,64.20
2023-02-11T05:51:46.852Z,64.21
2023-02-11T05:54:13.696Z,64.26
2023-02-11T05:56:40.954Z,64.36
2023-02-11T05:59:08.411Z,64.40
2023-02-11T06:01:35.550Z,64.36
2023-02-11T06:04:02.208Z,64.30
2023-02-11T06:06:28.902Z,64.37
2023-02-11T06:08:56.467Z,64.41
2023-02-11T06:11:23.271Z,64.42
2023-02-11T06:13:50.021Z,64.47
2023-02-11T06:16:16.619Z,64.48
2023-02-11T06:18:43.294Z,64.42
2023-02-11T06:21:11.835Z,64.30
2023-02-11T06:23:39.184Z,64.23
2023-02-11T06:26:09.630Z,64.25
2023-02-11T06:28:38.700Z,64.10
2023-02-11T06:31:08.145Z,64.11
2023-02-11T06:33:36.172Z,64.01
2023-02-11T06:36:04.072Z,63.99
2023-02-11T06:38:31.156Z,63.90
2023-02-11T06:40:57.818Z,63.80
2023-02-11T06:43:24.403Z,63.67
2023-02-11T06:45:55.817Z,63.60
2023-02-11T06:48:23.643Z,63.42
2023-02-11T06:50:50.354Z,63.19
2023-02-11T06:53:17.046Z,62.96
2023-02-11T06:55:43.657Z,62.79
2023-02-11T06:58:10.445Z,62.64
2023-02-11T07:00:37.595Z,62.59
2023-02-11T07:03:04.313Z,62.64
2023-02-11T07:05:30.994Z,62.70
2023-02-11T07:07:57.621Z,61.85
2023-02-11T07:10:24.180Z,61.66
2023-02-11T07:12:50.936Z,61.54
2023-02-11T07:15:17.799Z,61.51
2023-02-11T07:17:44.425Z,61.53
2023-02-11T07:20:12.567Z,61.40
2023-02-11T07:22:39.093Z,60.82
2023-02-11T07:25:06.107Z,60.47
2023-02-11T07:27:32.726Z,60.19
2023-02-11T07:29:59.419Z,60.05
2023-02-11T07:32:26.118Z,59.71
2023-02-11T07:34:52.758Z,60.94
2023-02-11T07:37:19.765Z,61.82
2023-02-11T07:39:46.328Z,60.55
2023-02-11T07:42:12.989Z,59.25
2023-02-11T07:44:39.631Z,59.00
2023-02-11T07:47:06.291Z,58.82
2023-02-11T07:49:33.113Z,58.88
2023-02-11T07:51:59.757Z,58.90
2023-02-11T07:54:26.417Z,58.69
2023-02-11T07:56:53.071Z,58.29
2023-02-11T07:59:19.842Z,57.63
2023-02-11T08:01:46.502Z,57.44
2023-02-11T08:04:13.210Z,57.11
2023-02-11T08:06:43.291Z,56.96
2023-02-11T08:09:16.591Z,56.87
2023-02-11T08:11:43.845Z,56.76
2023-02-11T08:14:11.670Z,56.69
2023-02-11T08:16:39.384Z,56.52
2023-02-11T08:19:12.452Z,56.14
2023-02-11T08:21:40.058Z,55.83
2023-02-11T08:24:07.201Z,56.53
2023-02-11T08:26:35.371Z,56.50
2023-02-11T08:29:08.432Z,55.53
2023-02-11T08:31:38.628Z,55.42
2023-02-11T08:34:06.266Z,55.16
2023-02-11T08:36:36.719Z,54.49
2023-02-11T08:39:18.670Z,54.49
2023-02-11T08:41:50.424Z,54.13
2023-02-11T08:44:19.147Z,54.26
2023-02-11T08:46:45.893Z,53.98
2023-02-11T08:49:12.514Z,54.02
2023-02-11T08:51:39.133Z,53.84
2023-02-11T08:54:09.529Z,53.82
2023-02-11T08:56:38.458Z,53.97
2023-02-11T08:59:06.181Z,53.71
2023-02-11T09:01:33.046Z,53.76
2023-02-11T09:03:59.711Z,53.58
2023-02-11T09:06:27.330Z,53.50
2023-02-11T09:08:56.876Z,53.27
2023-02-11T09:11:34.169Z,53.12
2023-02-11T09:14:02.489Z,52.90
2023-02-11T09:16:34.089Z,52.76
2023-02-11T09:19:04.138Z,52.72
2023-02-11T09:21:31.824Z,52.91
2023-02-11T09:23:58.453Z,53.76
2023-02-11T09:26:31.740Z,53.13
2023-02-11T09:29:00.051Z,53.10
2023-02-11T09:31:29.585Z,52.77
2023-02-11T09:34:00.513Z,52.84
2023-02-11T09:36:32.041Z,52.93
2023-02-11T09:39:01.968Z,52.57
2023-02-11T09:42:06.493Z,53.00
2023-02-11T09:44:36.767Z,51.75
2023-02-11T09:47:27.702Z,51.45
2023-02-11T09:50:22.884Z,51.18
2023-02-11T09:53:00.983Z,51.09
2023-02-11T09:55:39.699Z,50.71
2023-02-11T09:58:22.970Z,49.45
2023-02-11T10:01:36.081Z,47.50
2023-02-11T10:04:29.740Z,45.89
2023-02-11T10:07:25.965Z,44.39
2023-02-11T10:10:33.596Z,44.08
2023-02-11T10:13:31.125Z,43.51
2023-02-11T10:16:20.642Z,44.00
2023-02-11T10:19:11.325Z,43.71
2023-02-11T10:22:03.648Z,43.58
2023-02-11T10:24:31.620Z,43.26
2023-02-11T10:26:58.238Z,42.91
2023-02-11T10:29:38.867Z,42.70
2023-02-11T10:32:22.011Z,42.24
2023-02-11T10:34:48.679Z,43.22
2023-02-11T10:37:15.286Z,43.59
2023-02-11T10:39:42.179Z,42.23
2023-02-11T10:42:13.979Z,43.31
2023-02-11T10:44:59.840Z,43.13
2023-02-11T10:47:36.752Z,42.48
2023-02-11T10:50:19.623Z,42.94
2023-02-11T10:52:46.262Z,42.90
2023-02-11T10:55:24.716Z,42.83
2023-02-11T10:57:58.324Z,41.50
2023-02-11T11:00:41.142Z,42.29
2023-02-11T11:03:25.266Z,42.49
2023-02-11T11:06:03.185Z,42.16
2023-02-11T11:08:49.771Z,41.66
2023-02-11T11:11:20.306Z,41.45
2023-02-11T11:13:52.954Z,41.23
2023-02-11T11:16:30.511Z,41.17
2023-02-11T11:19:25.255Z,40.61
2023-02-11T11:21:55.672Z,40.81
2023-02-11T11:24:38.905Z,40.63
2023-02-11T11:27:06.082Z,39.93
2023-02-11T11:29:46.468Z,40.19
2023-02-11T11:32:22.691Z,40.63
2023-02-11T11:35:00.767Z,40.39
2023-02-11T11:37:35.935Z,40.40
2023-02-11T11:40:11.112Z,39.88
2023-02-11T11:42:40.144Z,39.51
2023-02-11T11:45:10.236Z,38.68
2023-02-11T11:47:53.903Z,37.83
2023-02-11T11:50:44.453Z,37.32
2023-02-11T11:53:19.135Z,36.35
2023-02-11T11:55:53.099Z,35.98
2023-02-11T11:58:23.137Z,35.86
2023-02-11T12:01:34.111Z,36.81
2023-02-11T12:04:57.792Z,36.42
2023-02-11T12:07:56.155Z,36.24
2023-02-11T12:10:57.793Z,36.19
2023-02-11T12:13:41.262Z,35.22
2023-02-11T12:16:30.063Z,36.12
2023-02-11T12:19:27.873Z,36.32
2023-02-11T12:22:12.498Z,36.54
2023-02-11T12:25:09.557Z,36.83
2023-02-11T12:28:01.572Z,36.94
2023-02-11T12:31:02.307Z,37.12
2023-02-11T12:33:44.882Z,36.16
2023-02-11T12:36:54.469Z,36.49
2023-02-11T12:40:12.704Z,37.35
2023-02-11T12:43:13.743Z,37.13
2023-02-11T12:45:49.534Z,37.13
2023-02-11T12:48:36.821Z,37.03
2023-02-11T12:51:23.871Z,36.96
2023-02-11T12:54:06.784Z,37.05
2023-02-11T12:56:39.703Z,37.24
2023-02-11T12:59:17.445Z,37.37
2023-02-11T13:01:44.991Z,37.43
2023-02-11T13:04:27.137Z,37.50
2023-02-11T13:07:12.603Z,37.47
2023-02-11T13:09:47.382Z,37.46
2023-02-11T13:12:33.494Z,37.52
2023-02-11T13:15:07.637Z,37.36
2023-02-11T13:17:47.507Z,37.44
2023-02-11T13:20:45.636Z,37.75
2023-02-11T13:23:50.275Z,37.56
2023-02-11T13:26:25.918Z,37.25
2023-02-11T13:29:26.623Z,36.91
2023-02-11T13:32:14.963Z,36.42
2023-02-11T13:34:41.455Z,36.08
2023-02-11T13:37:22.859Z,36.14
2023-02-11T13:40:19.060Z,35.16
2023-02-11T13:43:00.849Z,35.35
2023-02-11T13:45:44.863Z,35.12
2023-02-11T13:48:26.901Z,35.76
2023-02-11T13:51:01.120Z,35.30
2023-02-11T13:53:29.161Z,35.58
2023-02-11T13:56:11.514Z,34.99
2023-02-11T13:58:50.442Z,35.13
2023-02-11T14:02:14.435Z,35.78
2023-02-11T14:05:24.791Z,35.67
2023-02-11T14:08:28.646Z,35.17
2023-02-11T14:11:12.396Z,34.59
2023-02-11T14:13:48.235Z,35.87
2023-02-11T14:16:28.306Z,36.03
2023-02-11T14:19:02.496Z,35.54
2023-02-11T14:21:29.427Z,35.70
2023-02-11T14:24:01.858Z,35.97
2023-02-11T14:26:51.486Z,35.86
2023-02-11T14:29:29.903Z,35.24
2023-02-11T14:32:20.498Z,35.36
2023-02-11T14:35:10.472Z,35.60
2023-02-11T14:38:35.861Z,36.12
2023-02-11T14:41:25.417Z,36.38
2023-02-11T14:44:04.097Z,36.81
2023-02-11T14:46:35.169Z,37.23
2023-02-11T14:49:04.742Z,37.74
2023-02-11T14:51:36.830Z,38.00
2023-02-11T14:54:15.140Z,38.24
2023-02-11T14:56:42.739Z,38.56
2023-02-11T14:59:21.964Z,39.00
2023-02-11T15:01:56.365Z,39.42
2023-02-11T15:04:33.551Z,39.68
2023-02-11T15:07:10.706Z,39.97
2023-02-11T15:09:44.596Z,40.30
2023-02-11T15:12:29.466Z,40.56
2023-02-11T15:14:59.825Z,40.80
2023-02-11T15:17:30.702Z,41.00
2023-02-11T15:20:01.471Z,41.25
2023-02-11T15:22:33.056Z,41.38
2023-02-11T15:25:10.624Z,41.50
2023-02-11T15:27:38.669Z,41.63
2023-02-11T15:30:20.281Z,41.67
2023-02-11T15:32:48.366Z,41.93
2023-02-11T15:35:15.090Z,42.32
2023-02-11T15:37:41.992Z,42.57
2023-02-11T15:40:21.655Z,42.98
2023-02-11T15:43:04.272Z,43.27
2023-02-11T15:45:42.975Z,43.56
2023-02-11T15:48:35.480Z,43.76
2023-02-11T15:51:13.248Z,44.13
2023-02-11T15:53:43.346Z,44.16
2023-02-11T15:56:17.213Z,44.18
2023-02-11T15:58:47.731Z,44.30
2023-02-11T16:01:15.458Z,44.40
2023-02-11T16:03:43.654Z,44.51
2023-02-11T16:06:18.773Z,44.79
2023-02-11T16:09:08.506Z,45.06
2023-02-11T16:11:58.883Z,45.29
2023-02-11T16:14:34.731Z,45.46
2023-02-11T16:17:24.312Z,45.56
2023-02-11T16:19:53.681Z,45.64
2023-02-11T16:22:27.535Z,45.80
2023-02-11T16:24:57.952Z,45.95
2023-02-11T16:27:41.947Z,46.11
2023-02-11T16:30:28.989Z,46.25
2023-02-11T16:32:55.651Z,46.40
2023-02-11T16:35:22.332Z,46.56
2023-02-11T16:37:49.030Z,46.57
2023-02-11T16:40:15.885Z,46.59
2023-02-11T16:42:42.655Z,46.64
2023-02-11T16:45:09.921Z,46.76
2023-02-11T16:47:40.963Z,46.82
2023-02-11T16:50:21.200Z,46.90
2023-02-11T16:52:48.439Z,47.15
2023-02-11T16:55:15.363Z,47.47
2023-02-11T16:57:42.290Z,47.56
2023-02-11T17:00:10.337Z,47.63
2023-02-11T17:02:38.936Z,47.60
2023-02-11T17:05:11.794Z,47.74
2023-02-11T17:07:38.332Z,48.05
2023-02-11T17:10:18.173Z,48.24
2023-02-11T17:12:45.208Z,48.20
2023-02-11T17:15:11.844Z,48.30
2023-02-11T17:17:38.430Z,48.40
2023-02-11T17:20:06.771Z,48.75
2023-02-11T17:22:33.589Z,49.09
2023-02-11T17:25:00.291Z,49.17
2023-02-11T17:27:26.920Z,49.18
2023-02-11T17:29:53.569Z,49.31
2023-02-11T17:32:20.256Z,49.50
2023-02-11T17:34:46.915Z,49.64
2023-02-11T17:37:13.520Z,49.75
2023-02-11T17:39:40.782Z,49.84
2023-02-11T17:42:08.790Z,49.96
2023-02-11T17:44:35.742Z,49.99
2023-02-11T17:47:02.375Z,50.30
2023-02-11T17:49:29.047Z,50.50
2023-02-11T17:51:55.827Z,51.13
2023-02-11T17:54:22.586Z,51.97
2023-02-11T17:56:50.889Z,52.31
2023-02-11T17:59:17.863Z,52.89
2023-02-11T18:01:44.499Z,52.69
2023-02-11T18:04:16.621Z,52.92
2023-02-11T18:06:44.427Z,53.19
2023-02-11T18:09:12.046Z,53.69
2023-02-11T18:11:41.247Z,53.74
2023-02-11T18:14:09.593Z,53.82
2023-02-11T18:16:39.046Z,53.89
2023-02-11T18:19:07.509Z,54.05
2023-02-11T18:21:34.456Z,54.30
2023-02-11T18:24:06.049Z,54.47
2023-02-11T18:26:33.408Z,54.46
2023-02-11T18:29:00.498Z,54.52
2023-02-11T18:31:28.102Z,54.67
2023-02-11T18:33:54.890Z,54.98
2023-02-11T18:36:22.819Z,55.13
2023-02-11T18:38:49.462Z,55.09
2023-02-11T18:41:16.192Z,55.45
2023-02-11T18:43:43.138Z,55.54
2023-02-11T18:46:13.240Z,55.65
2023-02-11T18:48:41.333Z,55.59
2023-02-11T18:51:15.086Z,55.59
2023-02-11T18:53:43.362Z,55.55
2023-02-11T18:56:18.204Z,55.53
2023-02-11T18:58:45.035Z,55.51
2023-02-11T19:01:26.042Z,55.59
2023-02-11T19:03:54.568Z,55.68
2023-02-11T19:06:28.958Z,55.70
2023-02-11T19:09:00.255Z,55.75
2023-02-11T19:11:47.604Z,55.86
2023-02-11T19:14:27.223Z,55.90
2023-02-11T19:16:57.234Z,55.98
2023-02-11T19:19:28.506Z,56.01
2023-02-11T19:21:57.452Z,56.08
2023-02-11T19:24:25.567Z,56.13
2023-02-11T19:26:56.911Z,56.20
2023-02-11T19:29:24.298Z,56.18
2023-02-11T19:31:51.118Z,56.17
2023-02-11T19:34:22.005Z,56.20
2023-02-11T19:36:50.212Z,56.39
2023-02-11T19:39:18.585Z,56.38
2023-02-11T19:41:45.359Z,56.40
2023-02-11T19:44:14.121Z,56.39
2023-02-11T19:46:40.922Z,56.44
2023-02-11T19:49:09.942Z,56.32
2023-02-11T19:51:39.299Z,56.16
2023-02-11T19:54:08.213Z,55.91
2023-02-11T19:56:35.390Z,55.89
2023-02-11T19:59:04.875Z,55.99
2023-02-11T20:01:31.805Z,56.01
2023-02-11T20:03:58.597Z,56.03
2023-02-11T20:06:30.039Z,56.07
2023-02-11T20:09:01.491Z,56.01
2023-02-11T20:11:30.899Z,55.98
2023-02-11T20:13:58.295Z,55.91
2023-02-11T20:16:46.203Z,55.83
2023-02-11T20:19:19.003Z,55.79
2023-02-11T20:21:48.876Z,55.76
2023-02-11T20:24:17.750Z,55.71
2023-02-11T20:26:50.314Z,55.74
2023-02-11T20:29:18.531Z,55.72
2023-02-11T20:31:45.700Z,55.67
2023-02-11T20:34:12.646Z,55.61
2023-02-11T20:36:40.576Z,55.65
2023-02-11T20:39:08.620Z,55.61
2023-02-11T20:41:40.022Z,55.62
2023-02-11T20:44:10.604Z,55.59
2023-02-11T20:46:41.108Z,55.59
2023-02-11T20:49:11.851Z,55.58
2023-02-11T20:51:39.753Z,55.55
2023-02-11T20:54:06.932Z,55.60
2023-02-11T20:56:37.567Z,55.60
2023-02-11T20:59:05.558Z,55.57
2023-02-11T21:01:37.895Z,55.46
2023-02-11T21:04:15.780Z,55.38
2023-02-11T21:06:47.615Z,55.40
2023-02-11T21:09:21.281Z,55.37
2023-02-11T21:11:52.643Z,55.40
2023-02-11T21:14:22.850Z,55.37
2023-02-11T21:16:51.167Z,55.20
2023-02-11T21:19:18.175Z,55.16
2023-02-11T21:21:45.098Z,55.19
2023-02-11T21:24:12.301Z,55.12
2023-02-11T21:26:39.262Z,55.18
2023-02-11T21:29:08.518Z,55.23
2023-02-11T21:31:36.759Z,55.20
2023-02-11T21:34:04.516Z,55.26
2023-02-11T21:36:31.316Z,55.23
2023-02-11T21:38:58.678Z,55.17
2023-02-11T21:41:27.412Z,55.19
2023-02-11T21:43:54.445Z,55.34
2023-02-11T21:46:22.102Z,55.40
2023-02-11T21:48:49.362Z,55.41
2023-02-11T21:51:23.098Z,55.40
2023-02-11T21:53:57.976Z,55.49
2023-02-11T21:56:28.662Z,55.60
2023-02-11T21:58:58.238Z,55.60
2023-02-11T22:01:32.807Z,55.60
2023-02-11T22:03:59.631Z,55.64
2023-02-11T22:06:31.056Z,55.73
2023-02-11T22:08:59.126Z,55.98
2023-02-11T22:11:25.666Z,56.10
2023-02-11T22:13:56.400Z,56.22
2023-02-11T22:16:24.207Z,56.34
2023-02-11T22:18:51.583Z,56.56
2023-02-11T22:21:21.872Z,56.74
2023-02-11T22:23:49.501Z,56.70
2023-02-11T22:26:23.193Z,56.80
2023-02-11T22:28:51.594Z,56.93
2023-02-11T22:31:31.432Z,56.90
2023-02-11T22:33:58.990Z,56.92
2023-02-11T22:36:30.158Z,56.89
2023-02-11T22:39:03.785Z,56.90
2023-02-11T22:41:30.537Z,56.95
2023-02-11T22:43:57.680Z,57.04
2023-02-11T22:46:24.913Z,57.02
2023-02-11T22:48:52.132Z,57.00
2023-02-11T22:51:23.719Z,57.09
2023-02-11T22:53:57.158Z,57.18
2023-02-11T22:56:24.515Z,57.43
2023-02-11T22:58:51.927Z,57.63
2023-02-11T23:01:19.246Z,57.86
2023-02-11T23:03:46.235Z,58.11
2023-02-11T23:06:13.109Z,58.20
2023-02-11T23:08:42.837Z,58.32
2023-02-11T23:11:17.561Z,58.63
2023-02-11T23:13:46.558Z,58.79
2023-02-11T23:16:34.567Z,58.88
2023-02-11T23:19:06.610Z,59.11
2023-02-11T23:21:38.212Z,59.25
2023-02-11T23:24:12.680Z,59.30
2023-02-11T23:26:41.484Z,59.30
2023-02-11T23:29:10.258Z,59.33
2023-02-11T23:31:40.531Z,59.38
2023-02-11T23:34:08.760Z,59.16
2023-02-11T23:36:36.143Z,59.35
2023-02-11T23:39:03.668Z,59.61
2023-02-11T23:41:30.414Z,59.57
2023-02-11T23:43:58.109Z,59.76
2023-02-11T23:46:26.996Z,59.82
2023-02-11T23:48:53.858Z,60.10
2023-02-11T23:51:22.001Z,60.12
2023-02-11T23:53:49.862Z,60.24
2023-02-11T23:56:26.431Z,60.36
2023-02-11T23:58:57.225Z,60.58
